Time;durP1;ratioP1;P1;durP2;ratioP2;P2;SDS_P1;SDS_P2;PMS_P1;PMS_P2;Temp;Humidity;BMP_temperature;BMP_pressure;BME280_temperature;BME280_humidity;BME280_pressure;Samples;Min_cycle;Max_cycle;Signal;HPM_P1;HPM_P2
2023/12/02 00:00:41;;;;;;;6.45;4.18;;;;;;;18.63;30.40;100956.00;5027630;28;20033;-62
2023/12/02 00:03:06;;;;;;;6.35;4.30;;;;;;;18.62;30.45;100949.03;5027745;28;20083;-65
2023/12/02 00:05:31;;;;;;;7.47;4.23;;;;;;;18.58;30.43;100948.47;5027675;28;20025;-65
2023/12/02 00:07:56;;;;;;;6.60;4.13;;;;;;;18.58;30.20;100956.38;5027712;28;20316;-63
2023/12/02 00:10:22;;;;;;;6.22;4.35;;;;;;;18.57;30.20;100956.50;5028027;28;20346;-66
2023/12/02 00:12:47;;;;;;;7.78;4.03;;;;;;;18.55;30.34;100943.44;5027721;28;20041;-67
2023/12/02 00:15:12;;;;;;;6.95;4.18;;;;;;;18.54;30.07;100948.84;5027188;28;20042;-64
2023/12/02 00:17:38;;;;;;;6.63;4.07;;;;;;;18.51;30.21;100941.16;5027152;28;20029;-65
2023/12/02 00:20:03;;;;;;;6.53;4.20;;;;;;;18.48;30.34;100932.53;5027142;28;20429;-64
2023/12/02 00:22:29;;;;;;;6.30;4.43;;;;;;;18.47;30.14;100930.03;5026922;28;20032;-64
2023/12/02 00:24:54;;;;;;;6.18;4.25;;;;;;;18.46;30.42;100926.53;5026966;28;20043;-66
2023/12/02 00:27:19;;;;;;;6.20;4.10;;;;;;;18.46;30.49;100941.53;5027301;28;20026;-64
2023/12/02 00:29:45;;;;;;;6.88;4.45;;;;;;;18.47;30.35;100945.88;5026862;28;20313;-65
2023/12/02 00:32:10;;;;;;;6.93;4.43;;;;;;;18.44;30.41;100948.75;5026580;28;20532;-67
2023/12/02 00:34:35;;;;;;;5.85;4.05;;;;;;;18.44;30.02;100943.47;5027200;28;20047;-67
2023/12/02 00:37:00;;;;;;;6.00;4.23;;;;;;;18.42;30.22;100948.00;5026993;28;20060;-65
2023/12/02 00:39:27;;;;;;;6.47;4.23;;;;;;;18.42;30.21;100956.78;5027285;28;20262;-64
2023/12/02 00:41:52;;;;;;;6.18;4.18;;;;;;;18.39;30.09;100957.03;5026811;28;20325;-63
2023/12/02 00:44:19;;;;;;;7.18;4.25;;;;;;;18.39;29.98;100953.53;5026862;28;20034;-65
2023/12/02 00:46:45;;;;;;;5.70;3.72;;;;;;;18.38;30.11;100952.72;5026731;28;20029;-64
2023/12/02 00:49:10;;;;;;;5.72;3.85;;;;;;;18.37;30.06;100953.66;5026847;28;20041;-62
2023/12/02 00:51:36;;;;;;;6.28;4.35;;;;;;;18.35;29.91;100947.69;5027286;28;20041;-65
2023/12/02 00:54:01;;;;;;;6.35;4.18;;;;;;;18.32;30.25;100945.28;5026662;28;20556;-66
2023/12/02 00:56:26;;;;;;;6.38;4.07;;;;;;;18.33;29.94;100954.88;5027136;28;20032;-63
2023/12/02 00:58:51;;;;;;;6.13;4.20;;;;;;;18.33;29.89;100956.69;5026939;28;20116;-65
2023/12/02 01:01:17;;;;;;;6.47;4.17;;;;;;;18.31;30.05;100955.00;5026733;28;20254;-65
2023/12/02 01:03:42;;;;;;;6.05;4.03;;;;;;;18.31;29.99;100955.00;5026736;28;20286;-66
2023/12/02 01:06:08;;;;;;;6.03;4.35;;;;;;;18.30;29.86;100948.03;5026851;28;20370;-63
2023/12/02 01:08:33;;;;;;;5.97;3.90;;;;;;;18.28;29.98;100949.97;5026721;28;20036;-65
2023/12/02 01:10:58;;;;;;;7.13;3.90;;;;;;;18.26;29.94;100943.13;5026760;28;20041;-67
2023/12/02 01:13:23;;;;;;;6.10;4.30;;;;;;;18.25;30.01;100944.94;5026670;28;20266;-66
2023/12/02 01:15:49;;;;;;;6.23;4.00;;;;;;;18.26;29.87;100954.53;5026174;28;20021;-66
2023/12/02 01:18:14;;;;;;;6.60;4.63;;;;;;;18.25;29.84;100944.13;5026422;28;20271;-66
2023/12/02 01:20:39;;;;;;;6.03;3.92;;;;;;;18.26;29.68;100951.91;5026475;28;20052;-63
2023/12/02 01:23:04;;;;;;;6.80;4.22;;;;;;;18.23;29.64;100941.59;5026533;28;20116;-64
2023/12/02 01:25:30;;;;;;;6.15;4.10;;;;;;;18.23;29.83;100940.75;5026309;28;20040;-65
2023/12/02 01:27:55;;;;;;;5.97;3.60;;;;;;;18.21;29.78;100935.59;5027083;28;20512;-64
2023/12/02 01:30:20;;;;;;;6.73;3.83;;;;;;;18.18;29.65;100932.34;5025914;28;20510;-66
2023/12/02 01:32:46;;;;;;;5.72;3.83;;;;;;;18.18;29.83;100938.47;5025973;28;20274;-63
2023/12/02 01:35:11;;;;;;;6.00;3.88;;;;;;;18.17;29.79;100935.97;5026276;28;20473;-66
2023/12/02 01:37:37;;;;;;;5.53;3.60;;;;;;;18.18;29.74;100948.19;5026297;28;20024;-64
2023/12/02 01:40:02;;;;;;;6.00;4.05;;;;;;;18.15;29.62;100946.66;5026149;28;20332;-67
2023/12/02 01:42:28;;;;;;;7.03;4.30;;;;;;;18.16;29.76;100950.94;5026295;28;20039;-63
2023/12/02 01:44:54;;;;;;;6.22;4.00;;;;;;;18.13;29.88;100954.69;5026320;28;20112;-65
2023/12/02 01:47:19;;;;;;;5.40;3.53;;;;;;;18.12;29.79;100960.91;5026383;28;20120;-66
2023/12/02 01:49:45;;;;;;;6.05;3.90;;;;;;;18.13;29.69;100969.66;5026273;28;20139;-65
2023/12/02 01:52:11;;;;;;;5.55;3.88;;;;;;;18.11;29.63;100972.41;5026311;28;20206;-65
2023/12/02 01:54:37;;;;;;;6.68;4.00;;;;;;;18.12;29.56;100973.28;5026674;28;20117;-66
2023/12/02 01:57:02;;;;;;;6.00;3.95;;;;;;;18.09;29.60;100973.50;5025814;28;20116;-64
2023/12/02 01:59:28;;;;;;;5.53;3.92;;;;;;;18.09;29.90;100970.88;5026190;28;20031;-64
2023/12/02 02:01:53;;;;;;;6.43;4.38;;;;;;;18.08;29.85;100964.75;5025950;28;20377;-66
2023/12/02 02:04:19;;;;;;;6.03;4.15;;;;;;;18.08;29.56;100971.81;5025994;28;20035;-67
2023/12/02 02:06:44;;;;;;;5.93;3.95;;;;;;;18.06;29.66;100973.75;5026112;28;20033;-65
2023/12/02 02:09:10;;;;;;;6.88;4.40;;;;;;;18.06;29.36;100974.56;5025443;28;20025;-66
2023/12/02 02:11:35;;;;;;;6.28;4.20;;;;;;;18.04;29.58;100973.88;5026150;28;20033;-65
2023/12/02 02:14:01;;;;;;;6.50;4.07;;;;;;;18.05;29.42;100974.69;5026160;28;20040;-63
2023/12/02 02:16:26;;;;;;;5.80;3.90;;;;;;;18.03;29.60;100966.91;5027640;28;20472;-66
2023/12/02 02:18:51;;;;;;;6.55;4.38;;;;;;;18.03;29.31;100976.63;5029528;28;21230;-65
2023/12/02 02:21:19;;;;;;;6.82;4.38;;;;;;;18.01;29.36;100968.84;5029121;28;20112;-65
2023/12/02 02:23:44;;;;;;;6.45;4.13;;;;;;;18.00;29.30;100969.78;5029228;28;20025;-65
2023/12/02 02:26:10;;;;;;;5.97;3.90;;;;;;;17.97;29.49;100967.38;5029369;28;20028;-63
2023/12/02 02:28:35;;;;;;;6.90;4.47;;;;;;;17.95;29.73;100962.22;5029248;28;20631;-63
2023/12/02 02:31:00;;;;;;;7.30;4.68;;;;;;;17.97;29.35;100969.19;5028094;28;20033;-63
2023/12/02 02:33:26;;;;;;;6.90;4.37;;;;;;;17.96;29.47;100965.72;5029128;28;20045;-64
2023/12/02 02:35:51;;;;;;;6.38;4.07;;;;;;;17.95;29.54;100967.50;5029275;28;20255;-66
2023/12/02 02:38:18;;;;;;;6.10;4.53;;;;;;;17.95;29.69;100971.94;5029487;28;20140;-66
2023/12/02 02:40:44;;;;;;;6.00;4.07;;;;;;;17.94;29.52;100978.16;5029741;28;20421;-63
2023/12/02 02:43:09;;;;;;;6.10;4.05;;;;;;;17.92;29.22;100972.19;5028552;28;20034;-66
2023/12/02 02:45:34;;;;;;;6.40;4.30;;;;;;;17.92;29.21;100977.47;5028903;28;20037;-67
2023/12/02 02:47:59;;;;;;;6.63;4.10;;;;;;;17.92;29.30;100985.38;5029165;28;20048;-65
2023/12/02 02:50:25;;;;;;;6.60;4.28;;;;;;;17.90;29.23;100982.84;5028862;28;20471;-66
2023/12/02 02:52:50;;;;;;;6.00;4.15;;;;;;;17.89;29.36;100988.25;5028584;28;20129;-65
2023/12/02 02:55:16;;;;;;;6.38;4.15;;;;;;;17.91;29.53;100995.09;5028810;28;20112;-66
2023/12/02 02:57:41;;;;;;;6.22;4.30;;;;;;;17.89;29.17;100985.59;5028856;28;20377;-66
2023/12/02 03:00:10;;;;;;;6.43;4.37;;;;;;;17.86;29.12;100991.91;5029085;28;20105;-66
2023/12/02 03:02:36;;;;;;;7.10;4.60;;;;;;;17.85;29.26;100992.03;5028734;28;20286;-64
2023/12/02 03:05:02;;;;;;;6.57;4.38;;;;;;;17.86;29.50;100993.72;5028780;28;20039;-66
2023/12/02 03:07:27;;;;;;;6.45;4.20;;;;;;;17.86;29.59;101009.53;5028722;28;20115;-66
2023/12/02 03:09:52;;;;;;;6.27;4.13;;;;;;;17.83;29.52;101000.09;5028316;28;20381;-66
2023/12/02 03:12:18;;;;;;;6.80;4.25;;;;;;;17.84;29.45;100993.84;5028713;28;20270;-67
2023/12/02 03:14:43;;;;;;;6.03;3.90;;;;;;;17.83;29.50;100996.59;5028123;28;20040;-65
2023/12/02 03:17:08;;;;;;;6.70;4.20;;;;;;;17.83;29.17;100996.59;5028639;28;20033;-66
2023/12/02 03:19:33;;;;;;;6.70;4.50;;;;;;;17.81;29.32;100993.25;5028426;28;20254;-65
2023/12/02 03:21:59;;;;;;;7.03;4.40;;;;;;;17.82;29.44;100992.31;5028585;28;20035;-66
2023/12/02 03:24:24;;;;;;;6.85;4.20;;;;;;;17.81;28.65;100994.06;5028337;28;20385;-66
2023/12/02 03:26:50;;;;;;;6.03;4.13;;;;;;;17.77;29.20;100993.50;5027771;28;20018;-64
2023/12/02 03:29:15;;;;;;;6.53;4.32;;;;;;;17.78;29.47;100999.59;5027487;28;20025;-65
2023/12/02 03:31:40;;;;;;;6.38;4.30;;;;;;;17.79;29.53;100997.81;5028171;28;20025;-65
2023/12/02 03:34:06;;;;;;;6.80;4.43;;;;;;;17.76;29.44;100993.59;5028245;28;20408;-62
2023/12/02 03:36:31;;;;;;;6.07;4.07;;;;;;;17.75;29.35;100984.88;5027833;28;20040;-65
2023/12/02 03:38:57;;;;;;;5.72;3.85;;;;;;;17.75;29.50;101003.31;5028032;28;20096;-62
2023/12/02 03:41:22;;;;;;;6.40;4.03;;;;;;;17.76;29.00;100994.44;5028230;28;20091;-63
2023/12/02 03:43:47;;;;;;;6.32;4.47;;;;;;;17.76;29.48;100999.69;5027751;28;20034;-63
2023/12/02 03:46:13;;;;;;;6.07;3.83;;;;;;;17.75;29.34;100990.13;5027893;28;20083;-65
2023/12/02 03:48:38;;;;;;;6.32;4.40;;;;;;;17.76;29.15;100996.25;5027978;28;20021;-64
2023/12/02 03:51:04;;;;;;;6.22;4.43;;;;;;;17.73;29.16;100997.31;5028045;28;20018;-64
2023/12/02 03:53:30;;;;;;;6.63;4.25;;;;;;;17.74;29.23;101000.81;5028198;28;20031;-66
2023/12/02 03:55:56;;;;;;;6.55;4.50;;;;;;;17.71;29.30;101003.66;5026447;28;20035;-62
2023/12/02 03:58:22;;;;;;;6.40;4.22;;;;;;;17.72;29.33;100995.66;5009985;28;20417;-64
2023/12/02 04:00:47;;;;;;;6.13;3.92;;;;;;;17.72;29.40;100993.00;5027541;28;20087;-66
2023/12/02 04:03:12;;;;;;;6.05;4.05;;;;;;;17.72;29.09;101013.25;5027704;28;20477;-63
2023/12/02 04:05:38;;;;;;;6.75;4.22;;;;;;;17.72;29.13;101029.06;5026145;28;20584;-65
2023/12/02 04:08:04;;;;;;;6.47;4.10;;;;;;;17.70;29.16;101017.78;5027333;28;20033;-66
2023/12/02 04:10:30;;;;;;;6.93;4.55;;;;;;;17.71;29.11;101004.50;5027652;28;20102;-66
2023/12/02 04:12:55;;;;;;;6.10;4.20;;;;;;;17.70;29.32;101038.88;5027624;28;20128;-64
2023/12/02 04:15:21;;;;;;;7.13;4.18;;;;;;;17.70;29.49;101017.78;5027512;28;20033;-62
2023/12/02 04:17:46;;;;;;;6.20;4.45;;;;;;;17.68;29.01;101023.19;5027305;28;20087;-65
2023/12/02 04:20:14;;;;;;;5.95;4.07;;;;;;;17.68;29.42;101039.00;5027461;28;20520;-66
2023/12/02 04:22:40;;;;;;;6.40;4.35;;;;;;;17.67;29.10;101037.31;5027149;28;20033;-64
2023/12/02 04:25:06;;;;;;;5.85;4.10;;;;;;;17.68;29.35;101041.63;5027410;28;20335;-63
2023/12/02 04:27:31;;;;;;;6.60;4.10;;;;;;;17.67;29.02;101039.94;5027269;28;20033;-66
2023/12/02 04:29:57;;;;;;;6.10;4.20;;;;;;;17.67;29.20;101042.56;5026336;28;20116;-66
2023/12/02 04:32:22;;;;;;;6.32;4.57;;;;;;;17.67;28.99;101039.94;5026719;28;20469;-62
2023/12/02 04:34:48;;;;;;;6.20;4.03;;;;;;;17.65;29.27;101044.50;5027126;28;20025;-64
2023/12/02 04:37:13;;;;;;;6.30;4.32;;;;;;;17.66;29.00;101048.81;5027213;28;20076;-66
2023/12/02 04:39:39;;;;;;;6.53;4.35;;;;;;;17.66;29.03;101046.19;5027075;28;20033;-66
2023/12/02 04:42:04;;;;;;;7.22;4.53;;;;;;;17.67;29.22;101049.66;5026695;28;20087;-64
2023/12/02 04:44:30;;;;;;;6.70;4.43;;;;;;;17.67;29.25;101044.38;5027423;28;20095;-63
2023/12/02 04:46:55;;;;;;;6.55;4.15;;;;;;;17.66;29.30;101043.56;5026953;28;20041;-64
2023/12/02 04:49:21;;;;;;;6.53;4.28;;;;;;;17.66;29.40;101040.09;5026482;28;20045;-65
2023/12/02 04:51:46;;;;;;;6.25;4.30;;;;;;;17.65;29.36;101039.22;5026879;28;20447;-65
2023/12/02 04:54:11;;;;;;;6.80;4.40;;;;;;;17.66;29.29;101043.56;5027015;28;20037;-63
2023/12/02 04:56:36;;;;;;;6.53;4.25;;;;;;;17.66;29.48;101048.00;5026961;28;20382;-66
2023/12/02 04:59:02;;;;;;;5.88;4.00;;;;;;;17.66;29.06;101048.81;5026272;28;20032;-64
2023/12/02 05:01:27;;;;;;;6.20;4.25;;;;;;;17.68;29.16;101054.81;5024904;28;20087;-66
2023/12/02 05:03:52;;;;;;;7.43;4.50;;;;;;;17.67;29.25;101055.75;5026625;28;20435;-65
2023/12/02 05:06:17;;;;;;;6.00;4.30;;;;;;;17.64;29.48;101055.16;5027097;28;20038;-65
2023/12/02 05:08:46;;;;;;;6.00;4.05;;;;;;;17.65;29.04;101057.69;5026736;28;20025;-67
2023/12/02 05:11:20;;;;;;;7.10;4.55;;;;;;;17.66;29.29;101059.38;5026691;28;20099;-64
2023/12/02 05:13:46;;;;;;;6.38;4.13;;;;;;;17.68;29.17;101059.25;5026038;28;20466;-66
2023/12/02 05:16:12;;;;;;;6.35;4.50;;;;;;;17.66;29.23;101063.81;5026497;28;20036;-66
2023/12/02 05:18:39;;;;;;;5.03;3.38;;;;;;;17.67;29.47;101071.56;5026337;28;20025;-64
2023/12/02 05:21:05;;;;;;;6.13;4.18;;;;;;;17.69;29.56;101069.69;5026332;28;20120;-64
2023/12/02 05:23:30;;;;;;;6.88;4.30;;;;;;;17.67;29.26;101071.56;5026235;28;20132;-66
2023/12/02 05:25:55;;;;;;;6.32;4.22;;;;;;;17.67;29.26;101079.47;5026250;28;20025;-67
2023/12/02 05:28:22;;;;;;;6.47;4.23;;;;;;;17.68;29.13;101083.81;5026494;28;20021;-63
2023/12/02 05:30:47;;;;;;;6.15;3.70;;;;;;;17.73;29.70;101076.38;5025951;28;20271;-63
2023/12/02 05:33:13;;;;;;;6.47;3.67;;;;;;;17.75;30.25;101084.19;5025902;28;20107;-66
2023/12/02 05:35:38;;;;;;;5.20;3.30;;;;;;;17.75;30.32;101082.41;5026094;28;20052;-65
2023/12/02 05:38:03;;;;;;;6.47;3.20;;;;;;;17.77;30.86;101085.75;5026281;28;20271;-66
2023/12/02 05:40:29;;;;;;;4.78;2.83;;;;;;;17.80;30.89;101078.56;5026603;28;20324;-67
2023/12/02 05:42:54;;;;;;;4.40;2.63;;;;;;;17.81;30.43;101083.72;5025732;28;20436;-64
2023/12/02 05:45:19;;;;;;;4.85;2.83;;;;;;;17.88;30.74;101081.47;5026279;28;20036;-67
2023/12/02 05:47:44;;;;;;;4.30;2.60;;;;;;;17.90;30.22;101064.59;5026264;28;20052;-66
2023/12/02 05:50:10;;;;;;;4.40;2.67;;;;;;;17.92;30.28;101072.38;5025943;28;20262;-66
2023/12/02 05:52:35;;;;;;;4.32;2.55;;;;;;;17.97;30.27;101067.59;5030049;28;20413;-65
2023/12/02 05:55:00;;;;;;;4.35;2.67;;;;;;;18.02;30.52;101068.06;5030036;28;20033;-65
2023/12/02 05:57:25;;;;;;;5.68;3.00;;;;;;;18.05;30.23;101073.09;5030197;28;20124;-66
2023/12/02 05:59:51;;;;;;;5.00;3.15;;;;;;;18.08;30.23;101072.88;5029798;28;20029;-67
2023/12/02 06:02:16;;;;;;;4.53;2.70;;;;;;;18.09;30.33;101089.56;5029766;28;20025;-66
2023/12/02 06:04:42;;;;;;;4.03;2.63;;;;;;;18.08;30.13;101101.88;5030049;28;20037;-67
2023/12/02 06:07:07;;;;;;;4.55;2.72;;;;;;;18.12;30.41;101110.44;5029881;28;20060;-66
2023/12/02 06:09:33;;;;;;;4.80;2.70;;;;;;;18.13;30.60;101106.81;5029524;28;20473;-66
2023/12/02 06:11:58;;;;;;;4.90;2.80;;;;;;;18.18;30.58;101117.00;5029936;28;20033;-67
2023/12/02 06:14:23;;;;;;;4.40;2.55;;;;;;;18.18;30.41;101106.47;5029737;28;20682;-65
2023/12/02 06:16:48;;;;;;;3.90;2.30;;;;;;;18.19;30.59;101111.63;5029971;28;20035;-64
2023/12/02 06:19:14;;;;;;;4.05;2.50;;;;;;;18.19;30.56;101108.16;5029595;28;20754;-67
2023/12/02 06:21:39;;;;;;;4.28;2.40;;;;;;;18.19;30.45;101100.22;5029286;28;20041;-65
2023/12/02 06:24:05;;;;;;;3.88;2.53;;;;;;;18.21;30.57;101116.78;5029474;28;20048;-64
2023/12/02 06:26:30;;;;;;;4.55;2.30;;;;;;;18.21;30.32;101112.31;5029075;28;20467;-65
2023/12/02 06:28:55;;;;;;;4.43;2.53;;;;;;;18.22;30.73;101105.28;5029363;28;20072;-64
2023/12/02 06:31:21;;;;;;;4.40;2.57;;;;;;;18.22;30.72;101114.00;5029545;28;20263;-65
2023/12/02 06:33:46;;;;;;;4.10;2.30;;;;;;;18.22;30.54;101123.75;5029483;28;20282;-67
2023/12/02 06:36:12;;;;;;;4.03;2.30;;;;;;;18.23;30.32;101122.75;5029345;28;20091;-67
2023/12/02 06:38:37;;;;;;;4.40;2.60;;;;;;;18.23;30.72;101120.97;5029351;28;20034;-66
2023/12/02 06:41:03;;;;;;;4.25;2.50;;;;;;;18.26;30.42;101119.88;5028924;28;20025;-63
2023/12/02 06:43:28;;;;;;;4.47;2.65;;;;;;;18.26;30.11;101119.88;5029054;28;20499;-67
2023/12/02 06:45:54;;;;;;;4.40;2.78;;;;;;;18.25;30.64;101126.16;5029333;28;20124;-65
2023/12/02 06:48:19;;;;;;;4.78;2.90;;;;;;;18.26;30.49;101138.34;5029121;28;20029;-68
2023/12/02 06:50:44;;;;;;;4.60;2.83;;;;;;;18.26;30.30;101130.44;5029361;28;20036;-68
2023/12/02 06:53:12;;;;;;;4.78;2.97;;;;;;;18.29;30.54;101138.97;5029227;28;20080;-64
2023/12/02 06:55:37;;;;;;;4.85;2.88;;;;;;;18.29;30.18;101141.63;5029501;28;20116;-67
2023/12/02 06:58:03;;;;;;;4.72;2.95;;;;;;;18.29;30.22;101152.19;5028164;28;20538;-65
2023/12/02 07:00:28;;;;;;;5.07;3.25;;;;;;;18.32;30.48;101148.44;5028892;28;20037;-65
2023/12/02 07:02:54;;;;;;;4.97;3.05;;;;;;;18.33;30.17;101155.41;5028551;28;20115;-67
2023/12/02 07:05:19;;;;;;;4.57;2.70;;;;;;;18.30;30.30;101145.91;5028857;28;20347;-66
2023/12/02 07:07:44;;;;;;;4.93;2.97;;;;;;;18.33;30.25;101160.69;5028740;28;20029;-68
2023/12/02 07:10:10;;;;;;;4.85;3.03;;;;;;;18.31;30.39;101160.81;5028459;28;20037;-65
2023/12/02 07:12:36;;;;;;;4.97;3.15;;;;;;;18.33;30.46;101171.25;5028424;28;20079;-65
2023/12/02 07:15:04;;;;;;;4.85;3.03;;;;;;;18.30;30.29;101176.75;5028667;28;20035;-67
2023/12/02 07:17:30;;;;;;;4.80;2.83;;;;;;;18.32;30.01;101174.81;5027796;28;20068;-66
2023/12/02 07:19:55;;;;;;;5.40;3.57;;;;;;;18.34;30.29;101177.34;5028474;28;20076;-67
2023/12/02 07:22:20;;;;;;;5.60;3.50;;;;;;;18.33;30.14;101178.31;5028454;28;20337;-65
2023/12/02 07:24:45;;;;;;;4.87;3.17;;;;;;;18.30;30.15;101180.22;5028911;28;20068;-64
2023/12/02 07:27:11;;;;;;;4.60;2.70;;;;;;;18.28;30.54;101178.69;5028505;28;20278;-66
2023/12/02 07:29:37;;;;;;;4.75;2.80;;;;;;;18.30;30.14;101179.38;5027685;28;20278;-67
2023/12/02 07:32:03;;;;;;;5.68;2.78;;;;;;;18.33;30.39;101184.44;5023570;28;20050;-66
2023/12/02 07:34:28;;;;;;;4.82;2.90;;;;;;;18.34;30.63;101194.03;5028188;28;20083;-64
2023/12/02 07:36:54;;;;;;;5.03;2.80;;;;;;;18.36;30.28;101188.63;5028207;28;20056;-65
2023/12/02 07:39:19;;;;;;;4.38;2.58;;;;;;;18.37;30.76;101185.84;5028282;28;20366;-65
2023/12/02 07:41:45;;;;;;;4.93;2.85;;;;;;;18.38;30.52;101186.72;5028022;28;20025;-65
2023/12/02 07:44:11;;;;;;;4.72;2.47;;;;;;;18.38;30.55;101187.53;5028005;28;20231;-65
2023/12/02 07:46:37;;;;;;;4.90;2.67;;;;;;;18.40;30.73;101180.34;5027996;28;20029;-64
2023/12/02 07:49:02;;;;;;;4.65;2.63;;;;;;;18.39;30.79;101178.69;5028178;28;20036;-66
2023/12/02 07:51:27;;;;;;;4.80;2.85;;;;;;;18.39;30.55;101173.41;5027981;28;20042;-65
2023/12/02 07:53:53;;;;;;;4.82;2.88;;;;;;;18.40;30.65;101176.88;5027197;28;20037;-66
2023/12/02 07:56:19;;;;;;;4.40;2.63;;;;;;;18.40;31.04;101190.91;5027352;28;20371;-64
2023/12/02 07:58:44;;;;;;;4.70;2.60;;;;;;;18.41;30.78;101191.75;5027698;28;20366;-66
2023/12/02 08:01:09;;;;;;;4.70;2.53;;;;;;;18.40;30.84;101193.53;5027684;28;20351;-63
2023/12/02 08:03:34;;;;;;;4.75;2.60;;;;;;;18.43;30.90;101205.66;5027753;28;20041;-65
2023/12/02 08:06:00;;;;;;;5.00;3.10;;;;;;;18.45;30.79;101211.66;5027517;28;20083;-66
2023/12/02 08:08:26;;;;;;;4.63;2.78;;;;;;;18.49;30.96;101213.13;5027373;28;20277;-64
2023/12/02 08:10:51;;;;;;;4.78;2.80;;;;;;;18.49;31.02;101215.75;5027435;28;20049;-65
2023/12/02 08:13:17;;;;;;;4.88;2.92;;;;;;;18.51;31.43;101216.47;5026900;28;20035;-64
2023/12/02 08:15:43;;;;;;;6.05;3.05;;;;;;;18.53;31.47;101221.63;5027698;28;20049;-65
2023/12/02 08:18:08;;;;;;;5.20;2.67;;;;;;;18.53;31.22;101216.34;5027660;28;20386;-64
2023/12/02 08:20:33;;;;;;;4.70;2.47;;;;;;;18.54;31.20;101232.06;5026973;28;20450;-65
2023/12/02 08:22:59;;;;;;;5.25;2.63;;;;;;;18.57;31.46;101241.56;5026711;28;20576;-66
2023/12/02 08:25:24;;;;;;;4.67;2.50;;;;;;;18.55;31.59;101241.69;5026902;28;20462;-66
2023/12/02 08:27:49;;;;;;;4.90;2.95;;;;;;;18.56;31.54;101235.44;5027297;28;20281;-65
2023/12/02 08:30:15;;;;;;;5.30;2.65;;;;;;;18.57;31.47;101245.03;5026275;28;20017;-67
2023/12/02 08:32:40;;;;;;;5.07;2.58;;;;;;;18.59;31.79;101250.19;5026867;28;20046;-66
2023/12/02 08:35:06;;;;;;;4.25;2.50;;;;;;;18.61;31.78;101251.78;5026760;28;20097;-66
2023/12/02 08:37:31;;;;;;;4.80;2.88;;;;;;;18.60;31.51;101260.66;5027597;28;20462;-67
2023/12/02 08:39:56;;;;;;;4.30;2.67;;;;;;;18.58;31.61;101259.06;5027260;28;20413;-66
2023/12/02 08:42:22;;;;;;;4.93;2.53;;;;;;;18.55;31.63;101262.81;5027135;28;20259;-65
2023/12/02 08:44:47;;;;;;;4.47;2.65;;;;;;;18.56;31.64;101269.75;5025318;28;20033;-64
2023/12/02 08:47:12;;;;;;;4.40;2.45;;;;;;;18.56;31.56;101268.91;5024612;28;20037;-66
2023/12/02 08:49:37;;;;;;;4.22;2.33;;;;;;;18.53;31.48;101269.97;5024371;28;20462;-66
2023/12/02 08:52:03;;;;;;;4.40;2.60;;;;;;;18.55;31.59;101273.34;5023666;28;20523;-66
2023/12/02 08:54:28;;;;;;;4.70;2.80;;;;;;;18.55;31.97;101278.63;5023067;28;20075;-66
2023/12/02 08:56:54;;;;;;;4.75;2.80;;;;;;;18.55;31.62;101268.09;5022285;28;20358;-65
2023/12/02 08:59:19;;;;;;;4.50;2.50;;;;;;;18.56;31.69;101275.03;5023253;28;20083;-65
2023/12/02 09:01:44;;;;;;;4.25;2.30;;;;;;;18.61;31.73;101274.66;5022825;28;20037;-64
2023/12/02 09:04:10;;;;;;;4.72;2.65;;;;;;;18.61;31.81;101272.03;5022423;28;20045;-66
2023/12/02 09:06:35;;;;;;;4.32;2.53;;;;;;;18.63;31.54;101284.16;5022631;28;20502;-66
2023/12/02 09:09:00;;;;;;;5.70;2.60;;;;;;;18.65;31.67;101281.41;5022519;28;21114;-66
2023/12/02 09:11:26;;;;;;;4.50;2.70;;;;;;;18.65;31.63;101282.25;5022756;28;20029;-64
2023/12/02 09:13:51;;;;;;;6.03;2.60;;;;;;;18.63;31.63;101283.34;5022256;28;20045;-66
2023/12/02 09:16:20;;;;;;;4.95;2.80;;;;;;;18.61;31.49;101282.59;5022957;28;20061;-66
2023/12/02 09:18:46;;;;;;;5.43;2.47;;;;;;;18.63;31.46;101288.63;5025355;28;20057;-65
2023/12/02 09:21:21;;;;;;;4.20;2.42;;;;;;;18.59;31.56;101287.16;5022604;28;20470;-67
2023/12/02 09:23:47;;;;;;;4.13;2.40;;;;;;;18.62;31.83;101292.22;5024193;28;20091;-64
2023/12/02 09:26:27;;;;;;;4.63;2.90;;;;;;;18.59;31.57;101287.16;5024694;28;20063;-67
2023/12/02 09:28:54;;;;;;;4.85;2.58;;;;;;;18.63;31.70;101294.72;5026589;28;20061;-66
2023/12/02 09:31:20;;;;;;;4.70;2.70;;;;;;;18.66;31.71;101291.84;5026229;28;20488;-67
2023/12/02 09:33:45;;;;;;;4.97;2.83;;;;;;;18.69;31.37;101293.41;5026412;28;20089;-64
2023/12/02 09:36:33;;;;;;;4.65;2.35;;;;;;;18.70;31.87;101289.81;5026665;28;20120;-66
2023/12/02 09:39:08;;;;;;;5.05;2.63;;;;;;;18.75;31.33;101300.03;5026325;28;20270;-66
2023/12/02 09:41:45;;;;;;;4.90;2.90;;;;;;;18.76;31.67;101305.19;5025965;28;20575;-64
2023/12/02 09:44:20;;;;;;;5.47;2.80;;;;;;;18.78;31.60;101308.53;5026471;28;20041;-64
2023/12/02 09:47:22;;;;;;;6.55;2.90;;;;;;;18.75;31.83;101308.78;5026844;28;20485;-65
2023/12/02 09:50:11;;;;;;;4.20;2.58;;;;;;;18.78;31.53;101311.19;5027461;28;20049;-64
2023/12/02 09:52:56;;;;;;;4.35;2.35;;;;;;;18.77;31.90;101317.44;5026189;28;20029;-62
2023/12/02 09:55:37;;;;;;;4.72;2.72;;;;;;;18.74;31.54;101312.41;5024980;28;20506;-67
2023/12/02 09:58:24;;;;;;;6.05;3.30;;;;;;;18.76;31.26;101312.28;5025853;28;20073;-65
2023/12/02 10:00:58;;;;;;;5.13;3.08;;;;;;;18.72;31.29;101311.66;5025826;28;20044;-65
2023/12/02 10:03:41;;;;;;;6.15;3.28;;;;;;;18.73;31.05;101317.78;5026200;28;20025;-64
2023/12/02 10:06:25;;;;;;;5.70;3.50;;;;;;;18.70;30.88;101316.22;5026188;28;20074;-65
2023/12/02 10:09:09;;;;;;;5.47;3.50;;;;;;;18.71;31.13;101303.84;5025986;28;20041;-65
2023/12/02 10:12:12;;;;;;;5.45;3.50;;;;;;;18.73;30.88;101308.06;5007220;28;20736;-65
2023/12/02 10:14:40;;;;;;;5.80;3.60;;;;;;;18.71;30.75;101299.44;5025619;28;20041;-65
2023/12/02 10:17:10;;;;;;;6.00;3.55;;;;;;;18.73;31.17;101302.78;5025420;28;20083;-68
2023/12/02 10:19:54;;;;;;;6.15;3.22;;;;;;;18.73;31.09;101292.22;5024547;28;20087;-67
2023/12/02 10:22:23;;;;;;;5.38;3.47;;;;;;;18.75;31.13;101302.66;5025439;28;20025;-64
2023/12/02 10:24:54;;;;;;;5.18;3.17;;;;;;;18.78;30.86;101305.06;5026727;28;20040;-64
2023/12/02 10:27:19;;;;;;;5.30;3.08;;;;;;;18.78;31.09;101305.06;5025380;28;20041;-64
2023/12/02 10:29:50;;;;;;;5.38;2.97;;;;;;;18.80;30.91;101301.38;5025297;28;20041;-66
2023/12/02 10:32:27;;;;;;;5.82;3.63;;;;;;;18.85;30.95;101314.25;5024635;28;20056;-64
2023/12/02 10:35:11;;;;;;;5.15;3.28;;;;;;;18.87;30.90;101311.47;5024718;28;20033;-64
2023/12/02 10:37:40;;;;;;;5.32;3.03;;;;;;;18.85;31.29;101306.31;5024540;28;20025;-64
2023/12/02 10:40:11;;;;;;;7.10;3.15;;;;;;;18.84;31.19;101316.03;5024870;28;20041;-63
2023/12/02 10:42:45;;;;;;;5.03;3.28;;;;;;;18.85;31.10;101322.19;5024565;28;20095;-65
2023/12/02 10:45:14;;;;;;;5.43;3.30;;;;;;;18.84;30.92;101321.31;5025425;28;20119;-63
2023/12/02 10:47:40;;;;;;;5.40;3.28;;;;;;;18.83;30.97;101316.97;5025147;28;20045;-64
2023/12/02 10:50:06;;;;;;;7.60;3.63;;;;;;;18.85;30.79;101317.72;5024986;28;20029;-63
2023/12/02 10:52:33;;;;;;;5.60;3.35;;;;;;;18.85;31.03;101323.00;5024824;28;20024;-65
2023/12/02 10:55:01;;;;;;;5.82;3.05;;;;;;;18.87;31.09;101327.31;5025958;28;20037;-63
2023/12/02 10:57:27;;;;;;;5.20;3.00;;;;;;;18.84;30.77;101325.75;5025093;28;20485;-64
2023/12/02 11:00:16;;;;;;;6.35;3.33;;;;;;;18.88;31.15;101321.06;5025068;28;20044;-63
2023/12/02 11:02:52;;;;;;;6.78;3.05;;;;;;;18.88;31.27;101321.06;5027174;28;20076;-64
2023/12/02 11:05:30;;;;;;;5.38;3.25;;;;;;;18.87;31.06;101322.03;5027947;28;20033;-67
2023/12/02 11:08:03;;;;;;;5.35;3.38;;;;;;;18.90;31.12;101320.00;5027232;28;20029;-65
2023/12/02 11:10:39;;;;;;;6.28;3.20;;;;;;;18.91;31.01;101319.03;5027937;28;20034;-65
2023/12/02 11:13:19;;;;;;;5.70;3.20;;;;;;;18.91;31.44;101326.13;5027801;28;20034;-65
2023/12/02 11:16:25;;;;;;;6.28;3.58;;;;;;;18.93;31.02;101322.41;5024680;28;20045;-65
2023/12/02 11:19:04;;;;;;;4.90;2.83;;;;;;;18.95;30.85;101319.66;5024112;28;20036;-65
2023/12/02 11:22:02;;;;;;;6.05;3.72;;;;;;;18.94;31.15;101323.25;5023846;28;20417;-65
2023/12/02 11:24:35;;;;;;;5.60;3.75;;;;;;;18.96;31.19;101327.47;5027434;28;20116;-65